sensor_id;sensor_type;location;lat;lon;timestamp;P1;durP1;ratioP1;P2;durP2;ratioP2
16031;SDS011;8120;48.308;8.914;2022-07-23T00:00:47;10.83;;;7.73;;
16031;SDS011;8120;48.308;8.914;2022-07-23T00:03:15;8.93;;;6.90;;
16031;SDS011;8120;48.308;8.914;2022-07-23T00:05:43;8.83;;;5.87;;
16031;SDS011;8120;48.308;8.914;2022-07-23T00:08:11;9.30;;;6.77;;
16031;SDS011;8120;48.308;8.914;2022-07-23T00:10:39;7.30;;;6.03;;
16031;SDS011;8120;48.308;8.914;2022-07-23T00:13:07;8.43;;;6.33;;
16031;SDS011;8120;48.308;8.914;2022-07-23T00:15:35;8.93;;;6.63;;
16031;SDS011;8120;48.308;8.914;2022-07-23T00:18:05;8.07;;;6.00;;
16031;SDS011;8120;48.308;8.914;2022-07-23T00:20:32;6.93;;;5.73;;
16031;SDS011;8120;48.308;8.914;2022-07-23T00:23:00;9.33;;;6.40;;
16031;SDS011;8120;48.308;8.914;2022-07-23T00:25:28;8.27;;;5.67;;
16031;SDS011;8120;48.308;8.914;2022-07-23T00:27:57;7.17;;;5.83;;
16031;SDS011;8120;48.308;8.914;2022-07-23T00:30:26;7.17;;;6.10;;
16031;SDS011;8120;48.308;8.914;2022-07-23T00:32:57;6.30;;;5.43;;
16031;SDS011;8120;48.308;8.914;2022-07-23T00:35:29;8.27;;;7.00;;
16031;SDS011;8120;48.308;8.914;2022-07-23T00:37:58;7.53;;;6.10;;
16031;SDS011;8120;48.308;8.914;2022-07-23T00:40:27;7.53;;;6.20;;
16031;SDS011;8120;48.308;8.914;2022-07-23T00:42:56;7.03;;;5.87;;
16031;SDS011;8120;48.308;8.914;2022-07-23T00:45:25;7.70;;;6.13;;
16031;SDS011;8120;48.308;8.914;2022-07-23T00:47:53;9.50;;;6.90;;
16031;SDS011;8120;48.308;8.914;2022-07-23T00:50:22;7.87;;;6.50;;
16031;SDS011;8120;48.308;8.914;2022-07-23T00:52:51;9.27;;;6.70;;
16031;SDS011;8120;48.308;8.914;2022-07-23T00:55:19;9.30;;;7.57;;
16031;SDS011;8120;48.308;8.914;2022-07-23T00:57:47;10.17;;;8.07;;
16031;SDS011;8120;48.308;8.914;2022-07-23T01:00:16;10.07;;;7.60;;
16031;SDS011;8120;48.308;8.914;2022-07-23T01:02:44;9.67;;;7.17;;
16031;SDS011;8120;48.308;8.914;2022-07-23T01:05:13;10.20;;;7.37;;
16031;SDS011;8120;48.308;8.914;2022-07-23T01:07:42;8.73;;;7.03;;
16031;SDS011;8120;48.308;8.914;2022-07-23T01:10:12;10.53;;;8.43;;
16031;SDS011;8120;48.308;8.914;2022-07-23T01:12:58;9.83;;;7.57;;
16031;SDS011;8120;48.308;8.914;2022-07-23T01:15:27;11.33;;;7.97;;
16031;SDS011;8120;48.308;8.914;2022-07-23T01:17:56;8.90;;;7.50;;
16031;SDS011;8120;48.308;8.914;2022-07-23T01:20:24;10.07;;;7.33;;
16031;SDS011;8120;48.308;8.914;2022-07-23T01:22:53;10.33;;;8.07;;
16031;SDS011;8120;48.308;8.914;2022-07-23T01:25:21;11.37;;;7.93;;
16031;SDS011;8120;48.308;8.914;2022-07-23T01:27:50;9.20;;;7.50;;
16031;SDS011;8120;48.308;8.914;2022-07-23T01:30:19;10.43;;;7.50;;
16031;SDS011;8120;48.308;8.914;2022-07-23T01:32:47;8.77;;;7.73;;
16031;SDS011;8120;48.308;8.914;2022-07-23T01:35:15;10.60;;;7.70;;
16031;SDS011;8120;48.308;8.914;2022-07-23T01:37:43;8.30;;;6.63;;
16031;SDS011;8120;48.308;8.914;2022-07-23T01:40:12;8.10;;;6.73;;
16031;SDS011;8120;48.308;8.914;2022-07-23T01:42:40;9.30;;;6.90;;
16031;SDS011;8120;48.308;8.914;2022-07-23T01:45:08;10.00;;;7.07;;
16031;SDS011;8120;48.308;8.914;2022-07-23T01:47:37;10.80;;;6.83;;
16031;SDS011;8120;48.308;8.914;2022-07-23T01:50:05;7.97;;;6.47;;
16031;SDS011;8120;48.308;8.914;2022-07-23T01:52:34;7.67;;;5.70;;
16031;SDS011;8120;48.308;8.914;2022-07-23T01:55:02;8.30;;;6.40;;
16031;SDS011;8120;48.308;8.914;2022-07-23T01:57:33;7.93;;;5.93;;
16031;SDS011;8120;48.308;8.914;2022-07-23T02:00:01;7.53;;;5.50;;
16031;SDS011;8120;48.308;8.914;2022-07-23T02:02:29;7.23;;;5.10;;
16031;SDS011;8120;48.308;8.914;2022-07-23T02:04:57;8.00;;;5.00;;
16031;SDS011;8120;48.308;8.914;2022-07-23T02:07:25;8.73;;;5.67;;
16031;SDS011;8120;48.308;8.914;2022-07-23T02:09:58;5.87;;;4.73;;
16031;SDS011;8120;48.308;8.914;2022-07-23T02:12:26;5.90;;;4.60;;
16031;SDS011;8120;48.308;8.914;2022-07-23T02:14:55;6.33;;;4.93;;
16031;SDS011;8120;48.308;8.914;2022-07-23T02:17:23;5.63;;;4.60;;
16031;SDS011;8120;48.308;8.914;2022-07-23T02:19:52;7.47;;;5.07;;
16031;SDS011;8120;48.308;8.914;2022-07-23T02:22:19;5.90;;;4.50;;
16031;SDS011;8120;48.308;8.914;2022-07-23T02:24:47;5.57;;;4.37;;
16031;SDS011;8120;48.308;8.914;2022-07-23T02:27:15;6.23;;;4.87;;
16031;SDS011;8120;48.308;8.914;2022-07-23T02:29:43;5.83;;;4.20;;
16031;SDS011;8120;48.308;8.914;2022-07-23T02:32:13;5.23;;;4.33;;
16031;SDS011;8120;48.308;8.914;2022-07-23T02:34:41;5.33;;;4.27;;
16031;SDS011;8120;48.308;8.914;2022-07-23T02:37:08;5.47;;;4.27;;
16031;SDS011;8120;48.308;8.914;2022-07-23T02:39:36;5.13;;;3.83;;
16031;SDS011;8120;48.308;8.914;2022-07-23T02:42:04;5.57;;;3.63;;
16031;SDS011;8120;48.308;8.914;2022-07-23T02:44:32;6.57;;;4.20;;
16031;SDS011;8120;48.308;8.914;2022-07-23T02:47:00;4.90;;;3.60;;
16031;SDS011;8120;48.308;8.914;2022-07-23T02:49:30;6.47;;;4.87;;
16031;SDS011;8120;48.308;8.914;2022-07-23T02:51:57;7.37;;;5.50;;
16031;SDS011;8120;48.308;8.914;2022-07-23T02:54:25;7.10;;;5.87;;
16031;SDS011;8120;48.308;8.914;2022-07-23T02:56:53;6.43;;;5.43;;
16031;SDS011;8120;48.308;8.914;2022-07-23T02:59:21;6.53;;;5.17;;
16031;SDS011;8120;48.308;8.914;2022-07-23T03:01:49;7.10;;;5.27;;
16031;SDS011;8120;48.308;8.914;2022-07-23T03:04:17;7.43;;;5.43;;
16031;SDS011;8120;48.308;8.914;2022-07-23T03:06:46;7.83;;;5.40;;
16031;SDS011;8120;48.308;8.914;2022-07-23T03:09:15;8.50;;;5.90;;
16031;SDS011;8120;48.308;8.914;2022-07-23T03:11:42;8.10;;;6.13;;
16031;SDS011;8120;48.308;8.914;2022-07-23T03:14:10;7.83;;;6.03;;
16031;SDS011;8120;48.308;8.914;2022-07-23T03:16:39;7.67;;;6.20;;
16031;SDS011;8120;48.308;8.914;2022-07-23T03:19:07;7.83;;;5.37;;
16031;SDS011;8120;48.308;8.914;2022-07-23T03:21:35;8.13;;;5.40;;
16031;SDS011;8120;48.308;8.914;2022-07-23T03:24:08;7.47;;;6.27;;
16031;SDS011;8120;48.308;8.914;2022-07-23T03:26:36;9.37;;;6.40;;
16031;SDS011;8120;48.308;8.914;2022-07-23T03:29:04;11.03;;;6.37;;
16031;SDS011;8120;48.308;8.914;2022-07-23T03:31:32;6.97;;;6.03;;
16031;SDS011;8120;48.308;8.914;2022-07-23T03:34:00;8.83;;;5.60;;
16031;SDS011;8120;48.308;8.914;2022-07-23T03:36:28;7.27;;;5.50;;
16031;SDS011;8120;48.308;8.914;2022-07-23T03:38:56;8.83;;;7.07;;
16031;SDS011;8120;48.308;8.914;2022-07-23T03:41:28;9.13;;;6.73;;
16031;SDS011;8120;48.308;8.914;2022-07-23T03:43:56;10.33;;;7.00;;
16031;SDS011;8120;48.308;8.914;2022-07-23T03:46:24;9.27;;;7.20;;
16031;SDS011;8120;48.308;8.914;2022-07-23T03:48:52;7.43;;;6.20;;
16031;SDS011;8120;48.308;8.914;2022-07-23T03:51:24;7.70;;;6.33;;
16031;SDS011;8120;48.308;8.914;2022-07-23T03:53:52;7.60;;;6.17;;
16031;SDS011;8120;48.308;8.914;2022-07-23T03:56:21;8.80;;;6.90;;
16031;SDS011;8120;48.308;8.914;2022-07-23T03:58:50;8.93;;;6.43;;
16031;SDS011;8120;48.308;8.914;2022-07-23T04:01:18;7.90;;;6.37;;
16031;SDS011;8120;48.308;8.914;2022-07-23T04:03:46;8.73;;;6.87;;
16031;SDS011;8120;48.308;8.914;2022-07-23T04:06:14;8.60;;;6.17;;
16031;SDS011;8120;48.308;8.914;2022-07-23T04:08:42;8.93;;;7.13;;
16031;SDS011;8120;48.308;8.914;2022-07-23T04:11:10;9.50;;;7.57;;
16031;SDS011;8120;48.308;8.914;2022-07-23T04:13:37;7.90;;;6.47;;
16031;SDS011;8120;48.308;8.914;2022-07-23T04:16:08;8.97;;;6.80;;
16031;SDS011;8120;48.308;8.914;2022-07-23T04:18:36;8.40;;;6.67;;
16031;SDS011;8120;48.308;8.914;2022-07-23T04:21:04;8.60;;;6.53;;
16031;SDS011;8120;48.308;8.914;2022-07-23T04:23:32;8.70;;;6.40;;
16031;SDS011;8120;48.308;8.914;2022-07-23T04:26:00;8.07;;;6.50;;
16031;SDS011;8120;48.308;8.914;2022-07-23T04:28:28;8.73;;;6.57;;
16031;SDS011;8120;48.308;8.914;2022-07-23T04:30:56;9.30;;;6.70;;
16031;SDS011;8120;48.308;8.914;2022-07-23T04:33:26;9.33;;;7.40;;
16031;SDS011;8120;48.308;8.914;2022-07-23T04:35:53;8.40;;;6.67;;
16031;SDS011;8120;48.308;8.914;2022-07-23T04:38:21;8.83;;;6.50;;
16031;SDS011;8120;48.308;8.914;2022-07-23T04:40:49;8.63;;;7.03;;
16031;SDS011;8120;48.308;8.914;2022-07-23T04:43:17;8.03;;;6.33;;
16031;SDS011;8120;48.308;8.914;2022-07-23T04:45:45;9.80;;;6.77;;
16031;SDS011;8120;48.308;8.914;2022-07-23T04:48:13;8.17;;;6.40;;
16031;SDS011;8120;48.308;8.914;2022-07-23T04:50:44;8.30;;;6.33;;
16031;SDS011;8120;48.308;8.914;2022-07-23T04:53:11;9.30;;;6.43;;
16031;SDS011;8120;48.308;8.914;2022-07-23T04:55:39;7.90;;;5.87;;
16031;SDS011;8120;48.308;8.914;2022-07-23T04:58:07;7.37;;;6.07;;
16031;SDS011;8120;48.308;8.914;2022-07-23T05:00:35;7.07;;;5.67;;
16031;SDS011;8120;48.308;8.914;2022-07-23T05:03:03;7.43;;;6.30;;
16031;SDS011;8120;48.308;8.914;2022-07-23T05:05:31;7.27;;;5.70;;
16031;SDS011;8120;48.308;8.914;2022-07-23T05:08:00;8.47;;;6.40;;
16031;SDS011;8120;48.308;8.914;2022-07-23T05:10:28;7.33;;;5.93;;
16031;SDS011;8120;48.308;8.914;2022-07-23T05:12:56;7.90;;;6.25;;
16031;SDS011;8120;48.308;8.914;2022-07-23T05:15:24;7.65;;;6.30;;
16031;SDS011;8120;48.308;8.914;2022-07-23T05:17:52;7.03;;;5.95;;
16031;SDS011;8120;48.308;8.914;2022-07-23T05:20:20;7.45;;;5.72;;
16031;SDS011;8120;48.308;8.914;2022-07-23T05:22:48;6.63;;;5.57;;
16031;SDS011;8120;48.308;8.914;2022-07-23T05:25:18;7.45;;;5.72;;
16031;SDS011;8120;48.308;8.914;2022-07-23T05:27:46;7.78;;;5.97;;
16031;SDS011;8120;48.308;8.914;2022-07-23T05:30:13;10.07;;;6.22;;
16031;SDS011;8120;48.308;8.914;2022-07-23T05:32:41;7.63;;;6.05;;
16031;SDS011;8120;48.308;8.914;2022-07-23T05:35:09;6.75;;;5.72;;
16031;SDS011;8120;48.308;8.914;2022-07-23T05:37:37;6.43;;;5.15;;
16031;SDS011;8120;48.308;8.914;2022-07-23T05:40:06;6.85;;;6.15;;
16031;SDS011;8120;48.308;8.914;2022-07-23T05:42:38;6.55;;;5.60;;
16031;SDS011;8120;48.308;8.914;2022-07-23T05:45:08;7.18;;;5.82;;
16031;SDS011;8120;48.308;8.914;2022-07-23T05:47:40;6.95;;;5.20;;
16031;SDS011;8120;48.308;8.914;2022-07-23T05:50:10;8.02;;;5.78;;
16031;SDS011;8120;48.308;8.914;2022-07-23T05:52:38;7.80;;;5.80;;
16031;SDS011;8120;48.308;8.914;2022-07-23T05:55:07;6.72;;;5.72;;
16031;SDS011;8120;48.308;8.914;2022-07-23T05:57:37;6.10;;;5.10;;
16031;SDS011;8120;48.308;8.914;2022-07-23T06:00:06;8.52;;;5.57;;
16031;SDS011;8120;48.308;8.914;2022-07-23T06:02:35;7.20;;;5.70;;
16031;SDS011;8120;48.308;8.914;2022-07-23T06:05:04;8.77;;;5.75;;
16031;SDS011;8120;48.308;8.914;2022-07-23T06:07:34;5.82;;;5.20;;
16031;SDS011;8120;48.308;8.914;2022-07-23T06:10:02;6.25;;;5.50;;
16031;SDS011;8120;48.308;8.914;2022-07-23T06:12:31;7.15;;;6.10;;
16031;SDS011;8120;48.308;8.914;2022-07-23T06:15:00;7.15;;;5.57;;
16031;SDS011;8120;48.308;8.914;2022-07-23T06:17:29;7.63;;;5.97;;
16031;SDS011;8120;48.308;8.914;2022-07-23T06:19:57;7.40;;;5.53;;
16031;SDS011;8120;48.308;8.914;2022-07-23T06:22:24;7.25;;;5.90;;
16031;SDS011;8120;48.308;8.914;2022-07-23T06:24:52;7.63;;;6.10;;
16031;SDS011;8120;48.308;8.914;2022-07-23T06:27:21;8.27;;;6.55;;
16031;SDS011;8120;48.308;8.914;2022-07-23T06:29:52;7.80;;;6.28;;
16031;SDS011;8120;48.308;8.914;2022-07-23T06:32:22;9.32;;;6.55;;
16031;SDS011;8120;48.308;8.914;2022-07-23T06:34:50;7.65;;;6.40;;
16031;SDS011;8120;48.308;8.914;2022-07-23T06:37:18;6.95;;;6.25;;
16031;SDS011;8120;48.308;8.914;2022-07-23T06:39:45;8.05;;;6.05;;
16031;SDS011;8120;48.308;8.914;2022-07-23T06:42:13;6.97;;;6.28;;
16031;SDS011;8120;48.308;8.914;2022-07-23T06:44:41;8.10;;;6.28;;
16031;SDS011;8120;48.308;8.914;2022-07-23T06:47:09;6.95;;;5.93;;
16031;SDS011;8120;48.308;8.914;2022-07-23T06:49:38;8.07;;;6.78;;
16031;SDS011;8120;48.308;8.914;2022-07-23T06:52:07;8.05;;;6.55;;
16031;SDS011;8120;48.308;8.914;2022-07-23T06:54:35;7.93;;;6.53;;
16031;SDS011;8120;48.308;8.914;2022-07-23T06:57:03;7.82;;;6.00;;
16031;SDS011;8120;48.308;8.914;2022-07-23T06:59:31;6.60;;;5.90;;
16031;SDS011;8120;48.308;8.914;2022-07-23T07:01:59;9.00;;;6.55;;
16031;SDS011;8120;48.308;8.914;2022-07-23T07:04:27;8.57;;;6.47;;
16031;SDS011;8120;48.308;8.914;2022-07-23T07:06:56;7.25;;;6.45;;
16031;SDS011;8120;48.308;8.914;2022-07-23T07:09:24;7.53;;;6.15;;
16031;SDS011;8120;48.308;8.914;2022-07-23T07:11:52;8.02;;;6.07;;
16031;SDS011;8120;48.308;8.914;2022-07-23T07:14:20;6.93;;;6.00;;
16031;SDS011;8120;48.308;8.914;2022-07-23T07:16:48;10.65;;;6.97;;
16031;SDS011;8120;48.308;8.914;2022-07-23T07:19:16;7.40;;;6.20;;
16031;SDS011;8120;48.308;8.914;2022-07-23T07:21:44;8.40;;;6.70;;
16031;SDS011;8120;48.308;8.914;2022-07-23T07:24:13;8.30;;;6.40;;
16031;SDS011;8120;48.308;8.914;2022-07-23T07:26:41;6.70;;;6.00;;
16031;SDS011;8120;48.308;8.914;2022-07-23T07:29:09;7.70;;;6.18;;
16031;SDS011;8120;48.308;8.914;2022-07-23T07:31:37;9.35;;;6.80;;
16031;SDS011;8120;48.308;8.914;2022-07-23T07:34:05;9.25;;;6.78;;
16031;SDS011;8120;48.308;8.914;2022-07-23T07:36:33;7.45;;;6.45;;
16031;SDS011;8120;48.308;8.914;2022-07-23T07:39:03;7.50;;;6.30;;
16031;SDS011;8120;48.308;8.914;2022-07-23T07:41:32;7.95;;;6.22;;
16031;SDS011;8120;48.308;8.914;2022-07-23T07:44:00;8.55;;;6.15;;
16031;SDS011;8120;48.308;8.914;2022-07-23T07:46:29;7.97;;;6.10;;
16031;SDS011;8120;48.308;8.914;2022-07-23T07:48:57;7.07;;;5.43;;
16031;SDS011;8120;48.308;8.914;2022-07-23T07:51:25;7.00;;;5.78;;
16031;SDS011;8120;48.308;8.914;2022-07-23T07:53:53;9.10;;;6.63;;
16031;SDS011;8120;48.308;8.914;2022-07-23T07:56:21;6.32;;;5.68;;
16031;SDS011;8120;48.308;8.914;2022-07-23T07:58:51;7.97;;;6.18;;
16031;SDS011;8120;48.308;8.914;2022-07-23T08:01:19;7.35;;;6.65;;
16031;SDS011;8120;48.308;8.914;2022-07-23T08:03:47;7.03;;;6.32;;
16031;SDS011;8120;48.308;8.914;2022-07-23T08:06:15;7.13;;;5.85;;
16031;SDS011;8120;48.308;8.914;2022-07-23T08:08:46;8.55;;;6.75;;
16031;SDS011;8120;48.308;8.914;2022-07-23T08:11:14;7.97;;;6.70;;
16031;SDS011;8120;48.308;8.914;2022-07-23T08:13:43;7.97;;;6.65;;
16031;SDS011;8120;48.308;8.914;2022-07-23T08:16:12;8.10;;;7.30;;
16031;SDS011;8120;48.308;8.914;2022-07-23T08:18:40;7.75;;;6.47;;
16031;SDS011;8120;48.308;8.914;2022-07-23T08:21:08;7.70;;;6.30;;
16031;SDS011;8120;48.308;8.914;2022-07-23T08:23:37;8.73;;;6.85;;
16031;SDS011;8120;48.308;8.914;2022-07-23T08:26:05;7.47;;;6.47;;
16031;SDS011;8120;48.308;8.914;2022-07-23T08:28:33;7.22;;;6.28;;
16031;SDS011;8120;48.308;8.914;2022-07-23T08:31:01;7.65;;;6.32;;
16031;SDS011;8120;48.308;8.914;2022-07-23T08:33:33;7.82;;;6.30;;
16031;SDS011;8120;48.308;8.914;2022-07-23T08:36:01;7.30;;;6.38;;
16031;SDS011;8120;48.308;8.914;2022-07-23T08:38:30;7.80;;;6.63;;
16031;SDS011;8120;48.308;8.914;2022-07-23T08:40:59;8.13;;;7.13;;
16031;SDS011;8120;48.308;8.914;2022-07-23T08:43:27;8.20;;;6.75;;
16031;SDS011;8120;48.308;8.914;2022-07-23T08:45:57;7.45;;;6.30;;
16031;SDS011;8120;48.308;8.914;2022-07-23T08:48:27;9.25;;;6.65;;
16031;SDS011;8120;48.308;8.914;2022-07-23T08:50:58;10.20;;;6.38;;
16031;SDS011;8120;48.308;8.914;2022-07-23T08:53:28;7.32;;;6.07;;
16031;SDS011;8120;48.308;8.914;2022-07-23T08:55:57;8.40;;;6.85;;
16031;SDS011;8120;48.308;8.914;2022-07-23T08:58:28;8.02;;;6.85;;
16031;SDS011;8120;48.308;8.914;2022-07-23T09:00:56;7.55;;;6.43;;
16031;SDS011;8120;48.308;8.914;2022-07-23T09:03:25;6.60;;;5.88;;
16031;SDS011;8120;48.308;8.914;2022-07-23T09:05:54;10.73;;;6.70;;
16031;SDS011;8120;48.308;8.914;2022-07-23T09:08:25;7.38;;;6.57;;
16031;SDS011;8120;48.308;8.914;2022-07-23T09:11:01;7.72;;;6.05;;
16031;SDS011;8120;48.308;8.914;2022-07-23T09:13:32;20.42;;;7.70;;
16031;SDS011;8120;48.308;8.914;2022-07-23T09:16:03;14.60;;;9.68;;
16031;SDS011;8120;48.308;8.914;2022-07-23T09:18:34;8.90;;;6.50;;
16031;SDS011;8120;48.308;8.914;2022-07-23T09:21:11;8.57;;;6.40;;
16031;SDS011;8120;48.308;8.914;2022-07-23T09:23:50;8.07;;;6.47;;
16031;SDS011;8120;48.308;8.914;2022-07-23T09:26:27;9.32;;;6.95;;
16031;SDS011;8120;48.308;8.914;2022-07-23T09:29:01;8.77;;;7.28;;
16031;SDS011;8120;48.308;8.914;2022-07-23T09:31:42;7.60;;;6.63;;
16031;SDS011;8120;48.308;8.914;2022-07-23T09:34:13;8.98;;;8.07;;
16031;SDS011;8120;48.308;8.914;2022-07-23T09:36:42;23.52;;;9.00;;
16031;SDS011;8120;48.308;8.914;2022-07-23T09:39:12;19.55;;;12.30;;
16031;SDS011;8120;48.308;8.914;2022-07-23T09:41:41;10.60;;;7.88;;
16031;SDS011;8120;48.308;8.914;2022-07-23T09:44:14;8.20;;;6.63;;
16031;SDS011;8120;48.308;8.914;2022-07-23T09:46:44;8.93;;;6.78;;
16031;SDS011;8120;48.308;8.914;2022-07-23T09:49:14;10.15;;;6.40;;
16031;SDS011;8120;48.308;8.914;2022-07-23T09:51:48;8.10;;;6.43;;
16031;SDS011;8120;48.308;8.914;2022-07-23T09:54:29;8.15;;;6.50;;
16031;SDS011;8120;48.308;8.914;2022-07-23T09:57:01;9.05;;;7.15;;
16031;SDS011;8120;48.308;8.914;2022-07-23T09:59:33;7.95;;;6.65;;
16031;SDS011;8120;48.308;8.914;2022-07-23T10:02:03;7.40;;;6.68;;
16031;SDS011;8120;48.308;8.914;2022-07-23T10:04:32;10.40;;;6.95;;
16031;SDS011;8120;48.308;8.914;2022-07-23T10:07:05;8.10;;;6.95;;
16031;SDS011;8120;48.308;8.914;2022-07-23T10:09:37;8.13;;;6.43;;
16031;SDS011;8120;48.308;8.914;2022-07-23T10:12:09;7.65;;;6.70;;
16031;SDS011;8120;48.308;8.914;2022-07-23T10:14:50;8.82;;;6.88;;
16031;SDS011;8120;48.308;8.914;2022-07-23T10:17:19;7.70;;;6.65;;
16031;SDS011;8120;48.308;8.914;2022-07-23T10:19:47;7.20;;;6.43;;
16031;SDS011;8120;48.308;8.914;2022-07-23T10:22:18;9.60;;;7.18;;
16031;SDS011;8120;48.308;8.914;2022-07-23T10:24:52;8.90;;;7.13;;
16031;SDS011;8120;48.308;8.914;2022-07-23T10:27:34;9.00;;;6.93;;
16031;SDS011;8120;48.308;8.914;2022-07-23T10:30:34;7.55;;;6.35;;
16031;SDS011;8120;48.308;8.914;2022-07-23T10:35:59;8.63;;;7.32;;
16031;SDS011;8120;48.308;8.914;2022-07-23T10:38:35;7.35;;;6.65;;
16031;SDS011;8120;48.308;8.914;2022-07-23T10:41:11;7.85;;;7.05;;
16031;SDS011;8120;48.308;8.914;2022-07-23T10:43:39;9.13;;;7.07;;
16031;SDS011;8120;48.308;8.914;2022-07-23T10:46:21;8.70;;;7.07;;
16031;SDS011;8120;48.308;8.914;2022-07-23T10:54:53;8.63;;;6.72;;
16031;SDS011;8120;48.308;8.914;2022-07-23T10:57:24;8.52;;;7.13;;
16031;SDS011;8120;48.308;8.914;2022-07-23T11:02:40;11.75;;;10.60;;
16031;SDS011;8120;48.308;8.914;2022-07-23T11:05:10;8.98;;;7.15;;
16031;SDS011;8120;48.308;8.914;2022-07-23T11:10:38;10.40;;;9.38;;
16031;SDS011;8120;48.308;8.914;2022-07-23T11:18:57;7.88;;;7.00;;
16031;SDS011;8120;48.308;8.914;2022-07-23T11:21:41;7.30;;;6.60;;
16031;SDS011;8120;48.308;8.914;2022-07-23T11:24:12;8.23;;;7.13;;
16031;SDS011;8120;48.308;8.914;2022-07-23T11:26:43;8.95;;;7.10;;
16031;SDS011;8120;48.308;8.914;2022-07-23T11:32:34;8.55;;;7.05;;
16031;SDS011;8120;48.308;8.914;2022-07-23T11:37:54;10.80;;;7.13;;
16031;SDS011;8120;48.308;8.914;2022-07-23T11:40:31;8.32;;;7.45;;
16031;SDS011;8120;48.308;8.914;2022-07-23T11:43:01;8.30;;;7.35;;
16031;SDS011;8120;48.308;8.914;2022-07-23T11:45:32;9.50;;;7.22;;
16031;SDS011;8120;48.308;8.914;2022-07-23T11:48:03;9.70;;;6.80;;
16031;SDS011;8120;48.308;8.914;2022-07-23T11:50:32;8.70;;;7.57;;
16031;SDS011;8120;48.308;8.914;2022-07-23T11:53:00;8.38;;;7.30;;
16031;SDS011;8120;48.308;8.914;2022-07-23T11:55:29;8.18;;;7.15;;
16031;SDS011;8120;48.308;8.914;2022-07-23T11:57:57;8.27;;;7.28;;
16031;SDS011;8120;48.308;8.914;2022-07-23T12:00:27;8.55;;;7.57;;
16031;SDS011;8120;48.308;8.914;2022-07-23T12:02:57;8.40;;;7.40;;
16031;SDS011;8120;48.308;8.914;2022-07-23T12:05:29;8.68;;;6.97;;
16031;SDS011;8120;48.308;8.914;2022-07-23T12:07:58;7.85;;;7.05;;
16031;SDS011;8120;48.308;8.914;2022-07-23T12:10:28;8.07;;;6.80;;
16031;SDS011;8120;48.308;8.914;2022-07-23T12:12:58;8.60;;;7.70;;
16031;SDS011;8120;48.308;8.914;2022-07-23T12:15:29;9.07;;;8.18;;
16031;SDS011;8120;48.308;8.914;2022-07-23T12:17:59;12.45;;;11.25;;
16031;SDS011;8120;48.308;8.914;2022-07-23T12:20:30;8.05;;;7.35;;
16031;SDS011;8120;48.308;8.914;2022-07-23T12:23:02;8.50;;;7.03;;
16031;SDS011;8120;48.308;8.914;2022-07-23T12:25:32;8.23;;;6.88;;
16031;SDS011;8120;48.308;8.914;2022-07-23T12:28:03;7.45;;;6.65;;
16031;SDS011;8120;48.308;8.914;2022-07-23T12:30:33;7.32;;;6.47;;
16031;SDS011;8120;48.308;8.914;2022-07-23T12:33:03;6.75;;;6.05;;
16031;SDS011;8120;48.308;8.914;2022-07-23T12:35:34;8.13;;;6.68;;
16031;SDS011;8120;48.308;8.914;2022-07-23T12:38:05;8.48;;;7.03;;
16031;SDS011;8120;48.308;8.914;2022-07-23T12:40:34;7.75;;;6.88;;
16031;SDS011;8120;48.308;8.914;2022-07-23T12:43:05;8.07;;;6.68;;
16031;SDS011;8120;48.308;8.914;2022-07-23T12:45:44;8.10;;;7.30;;
16031;SDS011;8120;48.308;8.914;2022-07-23T12:48:18;8.70;;;6.88;;
16031;SDS011;8120;48.308;8.914;2022-07-23T12:50:54;8.15;;;7.25;;
16031;SDS011;8120;48.308;8.914;2022-07-23T12:53:24;8.07;;;6.85;;
16031;SDS011;8120;48.308;8.914;2022-07-23T12:55:57;7.95;;;6.95;;
16031;SDS011;8120;48.308;8.914;2022-07-23T12:58:46;8.05;;;7.13;;
16031;SDS011;8120;48.308;8.914;2022-07-23T13:01:26;7.88;;;7.07;;
16031;SDS011;8120;48.308;8.914;2022-07-23T13:03:56;8.73;;;6.70;;
16031;SDS011;8120;48.308;8.914;2022-07-23T13:06:28;8.05;;;7.25;;
16031;SDS011;8120;48.308;8.914;2022-07-23T13:08:57;8.38;;;6.85;;
16031;SDS011;8120;48.308;8.914;2022-07-23T13:11:28;8.80;;;7.28;;
16031;SDS011;8120;48.308;8.914;2022-07-23T13:13:56;8.15;;;6.60;;
16031;SDS011;8120;48.308;8.914;2022-07-23T13:16:26;7.28;;;6.57;;
16031;SDS011;8120;48.308;8.914;2022-07-23T13:18:55;8.25;;;7.05;;
16031;SDS011;8120;48.308;8.914;2022-07-23T13:21:24;7.45;;;6.53;;
16031;SDS011;8120;48.308;8.914;2022-07-23T13:23:55;7.38;;;6.55;;
16031;SDS011;8120;48.308;8.914;2022-07-23T13:26:23;8.50;;;6.68;;
16031;SDS011;8120;48.308;8.914;2022-07-23T13:28:52;9.02;;;6.93;;
16031;SDS011;8120;48.308;8.914;2022-07-23T13:31:20;9.98;;;7.78;;
16031;SDS011;8120;48.308;8.914;2022-07-23T13:33:50;7.82;;;6.65;;
16031;SDS011;8120;48.308;8.914;2022-07-23T13:36:18;8.15;;;7.00;;
16031;SDS011;8120;48.308;8.914;2022-07-23T13:38:46;7.68;;;6.85;;
16031;SDS011;8120;48.308;8.914;2022-07-23T13:41:16;7.50;;;6.72;;
16031;SDS011;8120;48.308;8.914;2022-07-23T13:43:45;8.30;;;7.03;;
16031;SDS011;8120;48.308;8.914;2022-07-23T13:46:13;7.82;;;6.97;;
16031;SDS011;8120;48.308;8.914;2022-07-23T13:48:41;7.18;;;6.47;;
16031;SDS011;8120;48.308;8.914;2022-07-23T13:51:09;10.68;;;7.25;;
16031;SDS011;8120;48.308;8.914;2022-07-23T13:53:37;7.38;;;6.60;;
16031;SDS011;8120;48.308;8.914;2022-07-23T13:56:06;7.07;;;6.38;;
16031;SDS011;8120;48.308;8.914;2022-07-23T13:58:35;7.70;;;6.57;;
16031;SDS011;8120;48.308;8.914;2022-07-23T14:01:03;7.50;;;6.63;;
16031;SDS011;8120;48.308;8.914;2022-07-23T14:03:31;7.55;;;6.75;;
16031;SDS011;8120;48.308;8.914;2022-07-23T14:06:00;7.95;;;7.15;;
16031;SDS011;8120;48.308;8.914;2022-07-23T14:08:28;8.82;;;7.85;;
16031;SDS011;8120;48.308;8.914;2022-07-23T14:10:56;9.02;;;6.72;;
16031;SDS011;8120;48.308;8.914;2022-07-23T14:13:24;7.43;;;6.63;;
16031;SDS011;8120;48.308;8.914;2022-07-23T14:15:53;7.80;;;7.00;;
16031;SDS011;8120;48.308;8.914;2022-07-23T14:18:21;8.90;;;6.82;;
16031;SDS011;8120;48.308;8.914;2022-07-23T14:20:49;7.22;;;6.53;;
16031;SDS011;8120;48.308;8.914;2022-07-23T14:23:17;9.05;;;6.80;;
16031;SDS011;8120;48.308;8.914;2022-07-23T14:25:45;8.13;;;7.18;;
16031;SDS011;8120;48.308;8.914;2022-07-23T14:28:14;8.50;;;7.00;;
16031;SDS011;8120;48.308;8.914;2022-07-23T14:30:42;7.82;;;7.03;;
16031;SDS011;8120;48.308;8.914;2022-07-23T14:33:11;7.70;;;6.90;;
16031;SDS011;8120;48.308;8.914;2022-07-23T14:35:42;8.57;;;6.90;;
16031;SDS011;8120;48.308;8.914;2022-07-23T14:38:10;8.32;;;6.85;;
16031;SDS011;8120;48.308;8.914;2022-07-23T14:40:39;8.88;;;7.15;;
16031;SDS011;8120;48.308;8.914;2022-07-23T14:43:07;7.82;;;7.03;;
16031;SDS011;8120;48.308;8.914;2022-07-23T14:45:37;9.05;;;7.13;;
16031;SDS011;8120;48.308;8.914;2022-07-23T14:48:05;9.65;;;7.47;;
16031;SDS011;8120;48.308;8.914;2022-07-23T14:50:35;7.75;;;6.82;;
16031;SDS011;8120;48.308;8.914;2022-07-23T14:53:03;7.75;;;6.75;;
16031;SDS011;8120;48.308;8.914;2022-07-23T14:55:31;8.90;;;6.97;;
16031;SDS011;8120;48.308;8.914;2022-07-23T14:58:00;9.10;;;6.95;;
16031;SDS011;8120;48.308;8.914;2022-07-23T15:00:28;7.38;;;6.18;;
16031;SDS011;8120;48.308;8.914;2022-07-23T15:02:56;10.55;;;7.57;;
16031;SDS011;8120;48.308;8.914;2022-07-23T15:05:24;8.32;;;6.50;;
16031;SDS011;8120;48.308;8.914;2022-07-23T15:07:54;7.50;;;6.03;;
16031;SDS011;8120;48.308;8.914;2022-07-23T15:10:22;9.50;;;6.78;;
16031;SDS011;8120;48.308;8.914;2022-07-23T15:12:49;9.40;;;6.97;;
16031;SDS011;8120;48.308;8.914;2022-07-23T15:15:19;7.30;;;6.50;;
16031;SDS011;8120;48.308;8.914;2022-07-23T15:17:47;8.68;;;6.50;;
16031;SDS011;8120;48.308;8.914;2022-07-23T15:20:16;7.85;;;6.60;;
16031;SDS011;8120;48.308;8.914;2022-07-23T15:23:03;7.90;;;6.72;;
16031;SDS011;8120;48.308;8.914;2022-07-23T15:25:33;6.97;;;6.28;;
16031;SDS011;8120;48.308;8.914;2022-07-23T15:28:01;6.78;;;5.97;;
16031;SDS011;8120;48.308;8.914;2022-07-23T15:30:32;7.03;;;6.20;;
16031;SDS011;8120;48.308;8.914;2022-07-23T15:33:02;8.55;;;6.28;;
16031;SDS011;8120;48.308;8.914;2022-07-23T15:35:32;7.28;;;6.30;;
16031;SDS011;8120;48.308;8.914;2022-07-23T15:38:00;8.75;;;6.78;;
16031;SDS011;8120;48.308;8.914;2022-07-23T15:40:39;8.75;;;6.90;;